Time;durP1;ratioP1;P1;durP2;ratioP2;P2;SDS_P1;SDS_P2;PMS_P1;PMS_P2;Temp;Humidity;BMP_temperature;BMP_pressure;BME280_temperature;BME280_humidity;BME280_pressure;Samples;Min_cycle;Max_cycle;Signal;HPM_P1;HPM_P2
2023/12/05 00:01:22;;;;;;;29.48;20.55;;;5.50;99.90;;;;;;5075976;28;20025;-65
2023/12/05 00:03:48;;;;;;;27.95;20.20;;;5.50;99.90;;;;;;5076625;28;20116;-66
2023/12/05 00:06:14;;;;;;;31.10;19.25;;;5.30;99.90;;;;;;5076745;28;20037;-66
2023/12/05 00:08:39;;;;;;;31.05;20.15;;;5.40;99.90;;;;;;5092662;28;20363;-66
2023/12/05 00:11:06;;;;;;;30.30;20.27;;;5.40;99.90;;;;;;5075865;28;20150;-66
2023/12/05 00:13:33;;;;;;;30.17;20.63;;;5.40;99.90;;;;;;5076625;28;20020;-66
2023/12/05 00:15:58;;;;;;;28.35;18.90;;;5.60;99.90;;;;;;5092686;28;20037;-65
2023/12/05 00:18:24;;;;;;;32.50;20.27;;;5.60;99.90;;;;;;5093346;28;20025;-65
2023/12/05 00:20:51;;;;;;;29.65;19.42;;;5.60;99.90;;;;;;5080692;28;20111;-65
2023/12/05 00:23:16;;;;;;;28.90;20.00;;;5.70;99.90;;;;;;5080504;28;20028;-64
2023/12/05 00:25:43;;;;;;;31.45;20.90;;;5.70;99.90;;;;;;5096775;28;20086;-63
2023/12/05 00:28:09;;;;;;;29.40;19.90;;;5.80;99.90;;;;;;5080212;28;20147;-66
2023/12/05 00:30:35;;;;;;;28.33;19.77;;;5.80;99.90;;;;;;5080252;28;20396;-64
2023/12/05 00:33:01;;;;;;;32.83;19.88;;;5.70;99.90;;;;;;5080249;28;20028;-64
2023/12/05 00:35:27;;;;;;;28.80;19.88;;;5.60;99.90;;;;;;5079505;28;20036;-65
2023/12/05 00:37:52;;;;;;;30.13;20.85;;;5.70;99.90;;;;;;5080125;28;20039;-64
2023/12/05 00:40:19;;;;;;;29.02;19.30;;;5.70;99.90;;;;;;5079388;28;20032;-65
2023/12/05 00:42:45;;;;;;;28.38;18.60;;;5.80;99.90;;;;;;5096258;28;20394;-65
2023/12/05 00:45:14;;;;;;;29.67;20.08;;;5.80;99.90;;;;;;5079987;28;20337;-65
2023/12/05 00:47:41;;;;;;;29.67;20.27;;;5.80;99.90;;;;;;5079200;28;20028;-66
2023/12/05 00:50:07;;;;;;;32.72;20.58;;;5.80;99.90;;;;;;5079228;28;20197;-65
2023/12/05 00:52:33;;;;;;;33.08;21.00;;;5.80;99.90;;;;;;5079929;28;20035;-65
2023/12/05 00:54:59;;;;;;;32.22;20.25;;;5.80;99.90;;;;;;5079870;28;20025;-66
2023/12/05 00:57:25;;;;;;;29.98;20.10;;;5.80;99.90;;;;;;5078937;28;20391;-65
2023/12/05 00:59:50;;;;;;;31.23;20.58;;;5.80;99.90;;;;;;5079040;28;20319;-66
2023/12/05 01:02:17;;;;;;;33.00;20.80;;;5.80;99.90;;;;;;5095837;28;20354;-66
2023/12/05 01:04:43;;;;;;;31.95;21.17;;;5.80;99.90;;;;;;5079672;28;20028;-66
2023/12/05 01:07:12;;;;;;;30.95;20.77;;;5.80;99.90;;;;;;5078954;28;20105;-65
2023/12/05 01:09:41;;;;;;;30.15;20.33;;;5.80;99.90;;;;;;5095291;28;20029;-66
2023/12/05 01:12:13;;;;;;;29.17;20.13;;;5.70;99.90;;;;;;5078789;28;20434;-66
2023/12/05 01:14:39;;;;;;;33.72;21.30;;;5.70;99.90;;;;;;5095826;28;20137;-66
2023/12/05 01:17:05;;;;;;;33.80;21.33;;;5.70;99.90;;;;;;5078646;28;20028;-65
2023/12/05 01:19:31;;;;;;;32.85;21.30;;;5.70;99.90;;;;;;5078936;28;20033;-65
2023/12/05 01:21:57;;;;;;;32.05;20.38;;;5.70;99.90;;;;;;5078595;28;20341;-63
2023/12/05 01:24:23;;;;;;;32.90;21.27;;;5.70;99.90;;;;;;5079357;28;20060;-65
2023/12/05 01:26:48;;;;;;;34.20;22.30;;;5.80;99.90;;;;;;5079431;28;20037;-65
2023/12/05 01:29:14;;;;;;;34.03;22.58;;;5.90;99.90;;;;;;5078424;28;20033;-65
2023/12/05 01:31:40;;;;;;;34.67;23.13;;;5.80;99.90;;;;;;5077442;28;20076;-65
2023/12/05 01:34:06;;;;;;;34.35;22.52;;;5.90;99.90;;;;;;5095306;28;20124;-65
2023/12/05 01:36:32;;;;;;;35.55;22.52;;;5.80;99.90;;;;;;5078503;28;20052;-65
2023/12/05 01:38:57;;;;;;;36.25;23.27;;;5.80;99.90;;;;;;5078283;28;20031;-66
2023/12/05 01:41:23;;;;;;;35.17;22.38;;;5.90;99.90;;;;;;5079070;28;20025;-65
2023/12/05 01:43:49;;;;;;;35.25;23.38;;;5.80;99.90;;;;;;5078285;28;20059;-65
2023/12/05 01:46:16;;;;;;;38.60;23.15;;;5.90;99.90;;;;;;5078303;28;20066;-65
2023/12/05 01:48:44;;;;;;;39.85;23.73;;;5.90;99.90;;;;;;5078892;28;20447;-65
2023/12/05 01:51:10;;;;;;;36.40;23.02;;;6.00;99.90;;;;;;5078146;28;20044;-64
2023/12/05 01:53:40;;;;;;;38.40;23.85;;;5.90;99.90;;;;;;5078789;28;20037;-65
2023/12/05 01:56:09;;;;;;;35.45;23.77;;;5.70;99.90;;;;;;5078880;28;20036;-65
2023/12/05 01:58:37;;;;;;;37.25;24.40;;;5.50;99.90;;;;;;5078684;28;20052;-64
2023/12/05 02:01:07;;;;;;;37.30;23.80;;;5.40;99.90;;;;;;5078073;28;20071;-65
2023/12/05 02:03:34;;;;;;;34.47;22.52;;;5.50;99.90;;;;;;5077803;28;20040;-65
2023/12/05 02:06:00;;;;;;;37.45;23.40;;;5.50;99.90;;;;;;5077756;28;20036;-65
2023/12/05 02:08:28;;;;;;;33.00;22.27;;;5.50;99.90;;;;;;5077754;28;20041;-65
2023/12/05 02:10:54;;;;;;;39.15;23.80;;;5.60;99.90;;;;;;5077600;28;20336;-66
2023/12/05 02:13:19;;;;;;;39.25;23.60;;;5.60;99.90;;;;;;5077586;28;20060;-65
2023/12/05 02:15:53;;;;;;;37.75;23.90;;;5.70;99.90;;;;;;5078433;28;20029;-64
2023/12/05 02:18:26;;;;;;;37.72;24.33;;;5.60;99.90;;;;;;5077641;28;20119;-64
2023/12/05 02:21:25;;;;;;;37.70;22.83;;;5.70;99.90;;;;;;5078286;28;20028;-65
2023/12/05 02:23:59;;;;;;;37.92;23.13;;;5.60;99.90;;;;;;5077202;28;20123;-64
2023/12/05 02:26:43;;;;;;;35.38;22.95;;;5.60;99.90;;;;;;5078171;28;20032;-64
2023/12/05 02:29:09;;;;;;;39.13;23.60;;;5.60;99.90;;;;;;5077113;28;20113;-64
2023/12/05 02:31:35;;;;;;;38.03;23.55;;;5.70;99.90;;;;;;5077973;28;20033;-64
2023/12/05 02:34:01;;;;;;;37.47;24.10;;;5.60;99.90;;;;;;5077938;28;20028;-64
2023/12/05 02:37:04;;;;;;;37.67;24.80;;;5.50;99.90;;;;;;5077285;28;20111;-64
2023/12/05 02:39:52;;;;;;;36.50;23.25;;;5.60;99.90;;;;;;5077116;28;20021;-64
2023/12/05 02:42:23;;;;;;;37.00;23.20;;;5.70;99.90;;;;;;5070793;28;20285;-64
2023/12/05 02:44:51;;;;;;;35.65;22.45;;;5.90;99.90;;;;;;5077212;28;20355;-64
2023/12/05 02:47:22;;;;;;;36.85;23.38;;;5.80;99.90;;;;;;5077324;28;20029;-64
2023/12/05 02:49:48;;;;;;;35.25;22.52;;;5.80;99.90;;;;;;5076901;28;20296;-64
2023/12/05 02:52:20;;;;;;;34.65;22.63;;;5.80;99.90;;;;;;5061054;28;20021;-64
2023/12/05 02:54:45;;;;;;;35.90;22.92;;;5.80;99.90;;;;;;5093858;28;20102;-64
2023/12/05 02:57:11;;;;;;;36.17;23.13;;;5.90;99.90;;;;;;5077459;28;20021;-64
2023/12/05 02:59:37;;;;;;;34.50;22.33;;;5.90;99.90;;;;;;5059961;28;20029;-64
2023/12/05 03:02:03;;;;;;;35.50;22.67;;;6.00;99.90;;;;;;5076730;28;20097;-64
2023/12/05 03:04:30;;;;;;;34.17;21.88;;;5.90;99.90;;;;;;5077383;28;20323;-64
2023/12/05 03:06:56;;;;;;;38.80;23.38;;;5.90;99.90;;;;;;5093399;28;20292;-64
2023/12/05 03:09:21;;;;;;;35.78;22.60;;;5.90;99.90;;;;;;5059910;28;20044;-64
2023/12/05 03:11:47;;;;;;;35.97;23.10;;;5.90;99.90;;;;;;5077284;28;20040;-65
2023/12/05 03:14:14;;;;;;;34.92;22.15;;;5.90;99.90;;;;;;5076382;28;20406;-65
2023/12/05 03:16:39;;;;;;;36.95;22.70;;;5.90;99.90;;;;;;5077410;28;20040;-65
2023/12/05 03:19:05;;;;;;;36.17;23.13;;;5.80;99.90;;;;;;5077174;28;20429;-65
2023/12/05 03:21:31;;;;;;;40.17;22.83;;;5.90;99.90;;;;;;5059826;28;20060;-65
2023/12/05 03:23:57;;;;;;;36.40;22.73;;;5.80;99.90;;;;;;5077121;28;20517;-65
2023/12/05 03:26:23;;;;;;;34.90;21.42;;;5.80;99.90;;;;;;5077094;28;20046;-65
2023/12/05 03:28:50;;;;;;;37.55;23.42;;;5.80;99.90;;;;;;5059560;28;20076;-65
2023/12/05 03:31:16;;;;;;;36.92;22.42;;;5.90;99.90;;;;;;5077025;28;20366;-65
2023/12/05 03:33:42;;;;;;;40.30;24.08;;;5.90;99.90;;;;;;5076971;28;20063;-65
2023/12/05 03:36:09;;;;;;;39.30;24.02;;;6.00;99.90;;;;;;5076152;28;20052;-65
2023/12/05 03:38:38;;;;;;;38.95;23.90;;;6.00;99.90;;;;;;5076892;28;20303;-65
2023/12/05 03:41:04;;;;;;;42.60;24.85;;;5.90;99.90;;;;;;5059436;28;20089;-65
2023/12/05 03:43:30;;;;;;;35.17;22.67;;;5.90;99.90;;;;;;5076830;28;20085;-65
2023/12/05 03:45:55;;;;;;;40.42;24.70;;;5.90;99.90;;;;;;5076042;28;20139;-65
2023/12/05 03:48:21;;;;;;;43.63;25.67;;;6.00;99.90;;;;;;5076901;28;20040;-65
2023/12/05 03:50:47;;;;;;;40.88;25.17;;;5.90;99.90;;;;;;5076001;28;20052;-65
2023/12/05 03:53:13;;;;;;;41.28;25.52;;;5.60;99.90;;;;;;5075527;28;20020;-64
2023/12/05 03:55:39;;;;;;;39.80;24.60;;;5.70;99.90;;;;;;5076096;28;20048;-65
2023/12/05 03:58:05;;;;;;;40.83;25.25;;;5.80;99.90;;;;;;5076752;28;20426;-65
2023/12/05 04:00:30;;;;;;;43.95;26.02;;;5.80;99.90;;;;;;5076810;28;20029;-65
2023/12/05 04:02:56;;;;;;;42.22;25.88;;;5.90;99.90;;;;;;5092838;28;20418;-65
2023/12/05 04:05:22;;;;;;;42.15;25.60;;;5.90;99.90;;;;;;5076066;28;20033;-65
2023/12/05 04:07:48;;;;;;;42.17;25.90;;;6.00;99.90;;;;;;5076747;28;20107;-65
2023/12/05 04:10:14;;;;;;;39.95;24.67;;;5.90;99.90;;;;;;5092744;28;20032;-65
2023/12/05 04:12:40;;;;;;;40.35;24.05;;;5.70;99.90;;;;;;5059107;28;20106;-64
2023/12/05 04:15:07;;;;;;;38.45;23.98;;;5.80;99.90;;;;;;5076007;28;20108;-64
2023/12/05 04:17:33;;;;;;;35.25;22.83;;;5.80;99.90;;;;;;5075811;28;20025;-65
2023/12/05 04:19:59;;;;;;;37.28;23.90;;;5.80;99.90;;;;;;5076693;28;20395;-65
2023/12/05 04:22:25;;;;;;;37.88;23.88;;;5.80;99.90;;;;;;5092650;28;20055;-64
2023/12/05 04:24:51;;;;;;;42.58;26.15;;;5.80;99.90;;;;;;5076530;28;20036;-64
2023/12/05 04:27:16;;;;;;;40.47;24.63;;;5.80;99.90;;;;;;5076208;28;20044;-64
2023/12/05 04:29:43;;;;;;;39.85;24.40;;;5.80;99.90;;;;;;5076381;28;20059;-64
2023/12/05 04:32:08;;;;;;;43.85;25.95;;;5.80;99.90;;;;;;5076436;28;20473;-65
2023/12/05 04:34:34;;;;;;;44.17;25.52;;;5.90;99.90;;;;;;5075661;28;20060;-65
2023/12/05 04:37:00;;;;;;;43.60;26.20;;;5.90;99.90;;;;;;5076331;28;20127;-65
2023/12/05 04:39:26;;;;;;;43.17;26.08;;;5.90;99.90;;;;;;5075601;28;20124;-65
2023/12/05 04:41:52;;;;;;;40.67;25.02;;;5.90;99.90;;;;;;5076391;28;20296;-65
2023/12/05 04:44:17;;;;;;;39.47;24.50;;;5.90;99.90;;;;;;5075566;28;20051;-65
2023/12/05 04:46:43;;;;;;;41.13;24.00;;;5.90;99.90;;;;;;5058866;28;20039;-65
2023/12/05 04:49:09;;;;;;;39.88;24.52;;;5.90;99.90;;;;;;5092372;28;20040;-65
2023/12/05 04:51:35;;;;;;;42.92;24.27;;;5.90;99.90;;;;;;5076383;28;20109;-64
2023/12/05 04:54:01;;;;;;;42.90;24.48;;;5.90;99.90;;;;;;5092173;28;20043;-65
2023/12/05 04:56:27;;;;;;;41.63;25.83;;;5.90;99.90;;;;;;5076327;28;20033;-65
2023/12/05 04:58:53;;;;;;;39.95;25.13;;;5.90;99.90;;;;;;5092289;28;20472;-65
2023/12/05 05:01:19;;;;;;;44.15;26.02;;;5.90;99.90;;;;;;5075404;28;20032;-64
2023/12/05 05:03:45;;;;;;;42.42;26.17;;;5.90;99.90;;;;;;5076157;28;20074;-64
2023/12/05 05:06:11;;;;;;;45.30;26.33;;;5.90;99.90;;;;;;5094009;28;20033;-63
2023/12/05 05:08:37;;;;;;;47.45;26.98;;;5.80;99.90;;;;;;5078825;28;20056;-63
2023/12/05 05:11:03;;;;;;;48.80;26.40;;;5.80;99.90;;;;;;5079589;28;20101;-63
2023/12/05 05:13:28;;;;;;;51.22;27.40;;;5.80;99.90;;;;;;5079631;28;20027;-63
2023/12/05 05:15:54;;;;;;;56.13;29.08;;;5.80;99.90;;;;;;5079524;28;20031;-63
2023/12/05 05:18:20;;;;;;;48.88;27.05;;;5.70;99.90;;;;;;5078668;28;20051;-63
2023/12/05 05:20:45;;;;;;;51.72;28.83;;;5.70;99.90;;;;;;5079529;28;20040;-63
2023/12/05 05:23:11;;;;;;;50.60;28.20;;;5.70;99.90;;;;;;5095426;28;20037;-62
2023/12/05 05:25:37;;;;;;;50.65;28.83;;;5.70;99.90;;;;;;5079402;28;20029;-62
2023/12/05 05:28:03;;;;;;;46.83;26.85;;;5.80;99.90;;;;;;5079114;28;20072;-64
2023/12/05 05:30:29;;;;;;;54.95;29.38;;;5.80;99.90;;;;;;5079298;28;20057;-63
2023/12/05 05:32:54;;;;;;;51.42;27.85;;;5.90;99.90;;;;;;5079201;28;20118;-63
2023/12/05 05:35:20;;;;;;;50.20;27.27;;;5.90;99.90;;;;;;5078839;28;20307;-63
2023/12/05 05:37:46;;;;;;;47.85;27.27;;;5.90;99.90;;;;;;5078254;28;20029;-63
2023/12/05 05:40:12;;;;;;;46.22;26.38;;;5.90;99.90;;;;;;5078313;28;20089;-63
2023/12/05 05:42:38;;;;;;;45.45;26.00;;;5.80;99.90;;;;;;5095072;28;20040;-63
2023/12/05 05:45:05;;;;;;;46.90;27.27;;;5.80;99.90;;;;;;5095068;28;20028;-63
2023/12/05 05:47:31;;;;;;;49.58;27.80;;;5.80;99.90;;;;;;5078887;28;20104;-63
2023/12/05 05:49:58;;;;;;;45.00;26.95;;;5.80;99.90;;;;;;5078019;28;20044;-63
2023/12/05 05:52:23;;;;;;;45.50;26.38;;;5.80;99.90;;;;;;5077984;28;20039;-64
2023/12/05 05:54:50;;;;;;;43.20;26.20;;;5.80;99.90;;;;;;5078762;28;20395;-64
2023/12/05 05:57:16;;;;;;;44.53;26.73;;;5.80;99.90;;;;;;5094598;28;20098;-64
2023/12/05 05:59:43;;;;;;;45.85;26.27;;;5.80;99.90;;;;;;5094819;28;20040;-64
2023/12/05 06:02:10;;;;;;;44.08;25.52;;;5.70;99.90;;;;;;5077700;28;20025;-63
2023/12/05 06:04:41;;;;;;;47.20;27.40;;;5.70;99.90;;;;;;5077635;28;20036;-63
2023/12/05 06:07:07;;;;;;;49.15;27.42;;;5.70;99.90;;;;;;5077680;28;20086;-64
2023/12/05 06:09:33;;;;;;;48.15;26.83;;;5.80;99.90;;;;;;5078416;28;20295;-64
2023/12/05 06:11:59;;;;;;;50.53;27.05;;;5.80;99.90;;;;;;5077529;28;20024;-63
2023/12/05 06:14:25;;;;;;;49.47;27.52;;;5.80;99.90;;;;;;5077610;28;20037;-63
2023/12/05 06:16:51;;;;;;;47.95;27.58;;;5.80;99.90;;;;;;5077833;28;20044;-64
2023/12/05 06:19:17;;;;;;;51.15;27.38;;;5.80;99.90;;;;;;5077480;28;20032;-62
2023/12/05 06:21:43;;;;;;;42.90;26.10;;;5.70;99.90;;;;;;5078149;28;20032;-63
2023/12/05 06:24:09;;;;;;;46.70;26.88;;;5.70;99.90;;;;;;5077430;28;20324;-63
2023/12/05 06:26:35;;;;;;;46.55;26.80;;;5.70;99.90;;;;;;5078026;28;20063;-62
2023/12/05 06:29:05;;;;;;;51.55;27.58;;;5.70;99.90;;;;;;5077871;28;20068;-63
2023/12/05 06:31:31;;;;;;;47.65;26.48;;;5.80;99.90;;;;;;5077309;28;20036;-62
2023/12/05 06:33:59;;;;;;;47.58;26.45;;;5.80;99.90;;;;;;5077297;28;20020;-63
2023/12/05 06:36:25;;;;;;;48.45;26.45;;;5.80;99.90;;;;;;5077201;28;20052;-63
2023/12/05 06:38:50;;;;;;;48.40;26.58;;;5.80;99.90;;;;;;5060507;28;20029;-63
2023/12/05 06:41:16;;;;;;;48.92;26.83;;;5.80;99.90;;;;;;5077867;28;20032;-63
2023/12/05 06:43:42;;;;;;;47.88;26.48;;;5.80;99.90;;;;;;5077800;28;20348;-63
2023/12/05 06:46:08;;;;;;;47.55;25.95;;;5.80;99.90;;;;;;5077791;28;20107;-63
2023/12/05 06:48:34;;;;;;;49.05;26.75;;;5.90;99.90;;;;;;5077908;28;20047;-63
2023/12/05 06:50:59;;;;;;;50.47;25.65;;;5.80;99.90;;;;;;5076854;28;20400;-63
2023/12/05 06:53:25;;;;;;;45.58;24.52;;;5.90;99.90;;;;;;5076799;28;20025;-63
2023/12/05 06:55:51;;;;;;;45.35;24.67;;;5.90;99.90;;;;;;5076794;28;20048;-63
2023/12/05 06:58:18;;;;;;;42.83;24.48;;;5.80;99.90;;;;;;5060000;28;20020;-63
2023/12/05 07:00:44;;;;;;;42.55;24.35;;;5.80;99.90;;;;;;5076837;28;20044;-63
2023/12/05 07:03:12;;;;;;;45.10;25.50;;;5.90;99.90;;;;;;5076715;28;20288;-63
2023/12/05 07:05:37;;;;;;;40.15;22.95;;;5.80;99.90;;;;;;5093446;28;20040;-63
2023/12/05 07:08:03;;;;;;;41.58;24.02;;;5.90;99.90;;;;;;5076439;28;20276;-63
2023/12/05 07:10:29;;;;;;;40.75;23.55;;;6.00;99.90;;;;;;5077288;28;20047;-66
2023/12/05 07:12:55;;;;;;;45.95;24.17;;;6.00;99.90;;;;;;5076514;28;20021;-62
2023/12/05 07:15:21;;;;;;;44.35;23.17;;;5.90;99.90;;;;;;5077235;28;20029;-63
2023/12/05 07:17:48;;;;;;;44.08;25.88;;;5.90;99.90;;;;;;5076486;28;20056;-62
2023/12/05 07:20:14;;;;;;;46.28;24.67;;;6.00;99.90;;;;;;5076498;28;20071;-64
2023/12/05 07:22:39;;;;;;;42.15;23.55;;;6.00;99.90;;;;;;5076455;28;20439;-63
2023/12/05 07:25:05;;;;;;;44.90;24.85;;;6.00;99.90;;;;;;5076520;28;20039;-63
2023/12/05 07:27:32;;;;;;;47.55;25.00;;;6.00;99.90;;;;;;5075826;28;20060;-62
2023/12/05 07:29:57;;;;;;;38.45;19.13;;;6.00;99.90;;;;;;5076563;28;20361;-64
2023/12/05 07:32:23;;;;;;;49.20;26.50;;;6.70;99.90;;;;;;5076356;28;20044;-63
2023/12/05 07:34:52;;;;;;;52.50;27.10;;;6.60;99.90;;;;;;5077012;28;20032;-64
2023/12/05 07:37:18;;;;;;;52.45;26.92;;;6.40;99.90;;;;;;5092744;28;20032;-64
2023/12/05 07:39:44;;;;;;;49.42;25.10;;;6.20;99.90;;;;;;5076150;28;20111;-62
2023/12/05 07:42:10;;;;;;;49.75;27.80;;;6.90;99.90;;;;;;5076836;28;20052;-63
2023/12/05 07:44:35;;;;;;;45.85;26.60;;;7.50;99.90;;;;;;5076795;28;20075;-64
2023/12/05 07:47:01;;;;;;;49.65;27.45;;;7.10;99.90;;;;;;5075851;28;20276;-65
2023/12/05 07:49:27;;;;;;;45.55;25.05;;;6.80;99.90;;;;;;5076071;28;20037;-64
2023/12/05 07:51:53;;;;;;;45.70;25.83;;;6.70;99.90;;;;;;5059176;28;20125;-63
2023/12/05 07:54:19;;;;;;;49.88;26.80;;;6.50;99.90;;;;;;5075798;28;20033;-63
2023/12/05 07:56:44;;;;;;;44.53;24.95;;;6.50;99.90;;;;;;5076557;28;20050;-63
2023/12/05 07:59:10;;;;;;;44.70;24.30;;;6.40;99.90;;;;;;5076229;28;20086;-64
2023/12/05 08:01:36;;;;;;;45.80;25.42;;;6.30;99.90;;;;;;5092520;28;20349;-64
2023/12/05 08:04:02;;;;;;;49.92;26.10;;;6.20;99.90;;;;;;5075726;28;20035;-64
2023/12/05 08:06:28;;;;;;;44.97;24.85;;;6.30;99.90;;;;;;5075870;28;20039;-64
2023/12/05 08:08:54;;;;;;;44.33;24.65;;;6.20;99.90;;;;;;5076526;28;20392;-64
2023/12/05 08:11:21;;;;;;;44.20;24.38;;;6.20;99.90;;;;;;5076361;28;20162;-63
2023/12/05 08:13:47;;;;;;;46.15;24.45;;;6.30;99.90;;;;;;5075785;28;20033;-64
2023/12/05 08:16:13;;;;;;;48.22;24.55;;;6.30;99.90;;;;;;5075732;28;20032;-64
2023/12/05 08:18:39;;;;;;;46.47;24.75;;;6.30;99.90;;;;;;5075891;28;20096;-64
2023/12/05 08:21:06;;;;;;;47.50;25.08;;;6.30;99.90;;;;;;5058956;28;20029;-63
2023/12/05 08:23:32;;;;;;;44.88;24.80;;;6.30;99.90;;;;;;5075576;28;20042;-64
2023/12/05 08:25:58;;;;;;;47.50;24.58;;;6.40;99.90;;;;;;5076302;28;20032;-64
2023/12/05 08:28:23;;;;;;;45.50;24.77;;;6.40;99.90;;;;;;5075470;28;20048;-64
2023/12/05 08:30:49;;;;;;;43.47;23.70;;;6.40;99.90;;;;;;5076204;28;20033;-63
2023/12/05 08:33:15;;;;;;;46.70;24.35;;;6.40;99.90;;;;;;5058650;28;20032;-63
2023/12/05 08:35:41;;;;;;;42.55;23.58;;;6.40;99.90;;;;;;5092524;28;20028;-63
2023/12/05 08:38:07;;;;;;;47.10;24.83;;;6.40;99.90;;;;;;5076409;28;20033;-64
2023/12/05 08:40:33;;;;;;;45.03;25.13;;;6.40;99.90;;;;;;5094931;28;20028;-63
2023/12/05 08:42:58;;;;;;;48.10;24.55;;;6.40;99.90;;;;;;5079299;28;20307;-63
2023/12/05 08:45:24;;;;;;;46.17;23.73;;;6.50;99.90;;;;;;5096294;28;20391;-63
2023/12/05 08:47:53;;;;;;;43.28;23.63;;;6.50;99.90;;;;;;5079159;28;20036;-64
2023/12/05 08:50:20;;;;;;;43.85;21.85;;;6.40;99.90;;;;;;5062466;28;20036;-64
2023/12/05 08:52:46;;;;;;;42.42;22.63;;;6.50;99.90;;;;;;5079247;28;20042;-64
2023/12/05 08:55:12;;;;;;;43.58;24.58;;;6.50;99.90;;;;;;5079931;28;20033;-65
2023/12/05 08:57:38;;;;;;;43.47;22.92;;;6.60;99.90;;;;;;5095931;28;20116;-64
2023/12/05 09:00:05;;;;;;;41.10;21.27;;;6.60;99.90;;;;;;5079781;28;20336;-64
2023/12/05 09:02:31;;;;;;;39.33;20.33;;;6.50;99.90;;;;;;5062333;28;20048;-64
2023/12/05 09:04:58;;;;;;;36.80;20.48;;;6.50;99.90;;;;;;5079103;28;20435;-64
2023/12/05 09:07:23;;;;;;;36.65;19.83;;;6.50;99.90;;;;;;5095848;28;20033;-64
2023/12/05 09:09:49;;;;;;;37.22;19.90;;;6.40;99.90;;;;;;5062202;28;20124;-63
2023/12/05 09:12:15;;;;;;;35.25;20.08;;;6.40;99.90;;;;;;5095646;28;20039;-64
2023/12/05 09:14:42;;;;;;;41.15;21.95;;;6.50;99.90;;;;;;5078669;28;20102;-64
2023/12/05 09:17:09;;;;;;;42.70;21.40;;;6.50;99.90;;;;;;5078729;28;20043;-64
2023/12/05 09:19:35;;;;;;;39.78;20.95;;;6.50;99.90;;;;;;5062003;28;20033;-64
2023/12/05 09:22:02;;;;;;;39.63;21.40;;;6.50;99.90;;;;;;5078656;28;20418;-64
2023/12/05 09:24:28;;;;;;;37.17;20.83;;;6.50;99.90;;;;;;5079345;28;20028;-64
2023/12/05 09:26:54;;;;;;;37.13;19.63;;;6.50;99.90;;;;;;5095504;28;20185;-64
2023/12/05 09:29:20;;;;;;;37.78;20.95;;;6.50;99.90;;;;;;5079113;28;20072;-64
2023/12/05 09:31:46;;;;;;;33.40;18.55;;;6.60;99.90;;;;;;5078339;28;20135;-64
2023/12/05 09:34:12;;;;;;;33.67;18.73;;;6.50;99.90;;;;;;5079238;28;20162;-64
2023/12/05 09:36:38;;;;;;;34.28;19.63;;;6.60;99.90;;;;;;5078520;28;20033;-64
2023/12/05 09:39:04;;;;;;;32.97;18.65;;;6.60;99.90;;;;;;5079132;28;20033;-64
2023/12/05 09:41:34;;;;;;;34.65;19.38;;;6.60;99.90;;;;;;5061674;28;20158;-64
2023/12/05 09:44:03;;;;;;;39.88;19.88;;;6.60;99.90;;;;;;5079057;28;20028;-65
2023/12/05 09:46:35;;;;;;;40.70;20.80;;;6.60;99.90;;;;;;5078464;28;20028;-65
2023/12/05 09:49:06;;;;;;;38.70;21.27;;;6.60;99.90;;;;;;5061664;28;20025;-65
2023/12/05 09:51:34;;;;;;;36.05;20.15;;;6.60;99.90;;;;;;5078262;28;20032;-65
2023/12/05 09:54:00;;;;;;;36.72;19.90;;;6.50;99.90;;;;;;5061411;28;20430;-64
2023/12/05 09:56:27;;;;;;;31.98;17.02;;;6.60;99.90;;;;;;5078102;28;20028;-65
2023/12/05 09:58:54;;;;;;;35.65;19.13;;;6.80;99.90;;;;;;5078561;28;20037;-65
2023/12/05 10:01:22;;;;;;;29.45;16.67;;;6.70;99.90;;;;;;5078693;28;20025;-65
2023/12/05 10:03:58;;;;;;;32.60;17.55;;;6.60;99.90;;;;;;5078620;28;20040;-65
2023/12/05 10:06:25;;;;;;;40.38;19.63;;;6.70;99.90;;;;;;5078578;28;20111;-66
2023/12/05 10:08:55;;;;;;;40.80;21.63;;;6.70;99.90;;;;;;5077825;28;20111;-65
2023/12/05 10:11:24;;;;;;;40.10;19.80;;;6.60;99.90;;;;;;5094083;28;20127;-65
2023/12/05 10:13:50;;;;;;;40.58;20.48;;;6.60;99.90;;;;;;5077651;28;20043;-65
2023/12/05 10:16:17;;;;;;;38.35;20.40;;;6.60;99.90;;;;;;5078410;28;20115;-65
2023/12/05 10:18:46;;;;;;;37.55;20.13;;;6.60;99.90;;;;;;5077563;28;20036;-65
2023/12/05 10:21:12;;;;;;;37.30;20.40;;;6.60;99.90;;;;;;5077596;28;20047;-65
2023/12/05 10:23:38;;;;;;;36.47;20.63;;;6.60;99.90;;;;;;5077477;28;20392;-65
2023/12/05 10:26:04;;;;;;;35.88;19.45;;;6.60;99.90;;;;;;5078299;28;20058;-65
2023/12/05 10:28:30;;;;;;;33.40;19.05;;;6.60;99.90;;;;;;5094031;28;20113;-65
2023/12/05 10:30:57;;;;;;;33.15;17.73;;;6.60;99.90;;;;;;5077385;28;20405;-65
2023/12/05 10:33:23;;;;;;;34.85;18.77;;;6.60;99.90;;;;;;5077975;28;20056;-65
2023/12/05 10:35:49;;;;;;;36.72;19.58;;;6.60;99.90;;;;;;5077199;28;20039;-64
2023/12/05 10:38:19;;;;;;;36.13;19.15;;;6.60;99.90;;;;;;5077865;28;20330;-64
2023/12/05 10:40:59;;;;;;;38.72;19.85;;;6.60;99.90;;;;;;5077741;28;20024;-65
2023/12/05 10:43:26;;;;;;;40.03;19.35;;;6.60;99.90;;;;;;5077809;28;20075;-64
2023/12/05 10:45:54;;;;;;;47.42;21.23;;;6.60;99.90;;;;;;5077022;28;20043;-65
2023/12/05 10:48:21;;;;;;;48.47;22.80;;;6.60;99.90;;;;;;5076897;28;20044;-64
2023/12/05 10:50:49;;;;;;;43.50;21.83;;;6.60;99.90;;;;;;5076933;28;20098;-64
2023/12/05 10:53:15;;;;;;;49.53;23.13;;;6.60;99.90;;;;;;5077612;28;20090;-65
2023/12/05 10:55:42;;;;;;;41.28;21.63;;;6.60;99.90;;;;;;5077603;28;20024;-65
2023/12/05 10:58:08;;;;;;;44.95;21.52;;;6.70;99.90;;;;;;5093700;28;20028;-65
2023/12/05 11:00:38;;;;;;;48.50;22.65;;;6.60;99.90;;;;;;5076798;28;20037;-65
2023/12/05 11:03:04;;;;;;;42.15;21.27;;;6.60;99.90;;;;;;5077281;28;20032;-65
2023/12/05 11:05:31;;;;;;;42.00;21.52;;;6.70;99.90;;;;;;5077516;28;20373;-65
2023/12/05 11:07:58;;;;;;;44.90;22.13;;;6.60;99.90;;;;;;5076484;28;20295;-64
2023/12/05 11:10:27;;;;;;;39.05;21.45;;;6.70;99.90;;;;;;5076475;28;20032;-65
2023/12/05 11:12:55;;;;;;;38.83;20.10;;;6.60;99.90;;;;;;5076508;28;20028;-64
2023/12/05 11:15:28;;;;;;;38.50;20.00;;;6.60;99.90;;;;;;5059731;28;20104;-65
2023/12/05 11:18:07;;;;;;;38.67;20.40;;;6.50;99.90;;;;;;5059644;28;20032;-65
2023/12/05 11:21:02;;;;;;;35.90;18.88;;;6.60;99.90;;;;;;5076569;28;20040;-65
2023/12/05 11:23:41;;;;;;;35.22;18.85;;;6.40;99.90;;;;;;5076296;28;20058;-65
2023/12/05 11:26:30;;;;;;;34.97;18.52;;;6.50;99.90;;;;;;5076312;28;20307;-64
2023/12/05 11:29:11;;;;;;;34.92;17.63;;;6.50;99.90;;;;;;5076024;28;20056;-64
2023/12/05 11:31:56;;;;;;;35.55;19.00;;;6.50;99.90;;;;;;5076607;28;20106;-65
2023/12/05 11:35:05;;;;;;;34.78;18.95;;;6.50;99.90;;;;;;5076650;28;20108;-66
2023/12/05 11:37:50;;;;;;;36.80;18.00;;;6.50;99.90;;;;;;5055708;28;20032;-66
2023/12/05 11:40:15;;;;;;;33.40;18.17;;;6.50;99.90;;;;;;5076873;28;20070;-66
2023/12/05 11:43:10;;;;;;;35.80;18.20;;;6.50;99.90;;;;;;5076173;28;20340;-66
2023/12/05 11:45:43;;;;;;;30.52;16.55;;;6.60;99.90;;;;;;5076917;28;20050;-66
2023/12/05 11:48:15;;;;;;;31.30;17.20;;;6.60;99.90;;;;;;5092985;28;20427;-66
2023/12/05 11:50:45;;;;;;;;;;;6.60;99.90;;;;;;5076823;28;20044;-65
2023/12/05 11:53:20;;;;;;;28.55;16.65;;;6.60;99.90;;;;;;5059137;28;19912;-65
2023/12/05 11:55:47;;;;;;;31.17;17.63;;;6.60;99.90;;;;;;5075988;28;20384;-65
2023/12/05 11:58:29;;;;;;;29.63;17.10;;;6.60;99.90;;;;;;5075948;28;20024;-66
2023/12/05 12:01:14;;;;;;;35.70;18.95;;;6.70;99.90;;;;;;5076021;28;20059;-66
2023/12/05 12:03:48;;;;;;;31.80;18.33;;;6.70;99.90;;;;;;5076090;28;20075;-67
2023/12/05 12:06:24;;;;;;;33.60;18.70;;;6.70;99.90;;;;;;5076608;28;20032;-66
2023/12/05 12:08:53;;;;;;;32.72;17.27;;;6.80;99.90;;;;;;5075817;28;20040;-66
2023/12/05 12:11:23;;;;;;;34.05;17.17;;;6.70;99.90;;;;;;5075802;28;20362;-67
2023/12/05 12:13:50;;;;;;;31.10;17.15;;;6.70;99.90;;;;;;5076681;28;20083;-65
2023/12/05 12:16:20;;;;;;;30.05;16.83;;;6.60;99.90;;;;;;5080418;28;20111;-66
2023/12/05 12:18:46;;;;;;;34.40;17.85;;;6.60;99.90;;;;;;5079867;28;20087;-66
2023/12/05 12:21:12;;;;;;;30.55;17.70;;;6.60;99.90;;;;;;5080653;28;20459;-66
2023/12/05 12:23:38;;;;;;;38.60;19.27;;;6.60;99.90;;;;;;5079811;28;20072;-66
2023/12/05 12:26:09;;;;;;;42.03;19.73;;;6.60;99.90;;;;;;5080500;28;20314;-65
2023/12/05 12:28:35;;;;;;;38.35;19.27;;;6.50;99.90;;;;;;5080300;28;20395;-66
2023/12/05 12:31:02;;;;;;;39.28;20.92;;;6.50;99.90;;;;;;5079693;28;20124;-66
2023/12/05 12:33:41;;;;;;;44.97;21.45;;;6.50;99.90;;;;;;5079732;28;20020;-65
2023/12/05 12:36:08;;;;;;;36.17;19.80;;;6.50;99.90;;;;;;5062854;28;20032;-65
2023/12/05 12:38:36;;;;;;;43.13;19.35;;;6.50;99.90;;;;;;5079546;28;20024;-65
2023/12/05 12:41:02;;;;;;;37.53;20.15;;;6.40;99.90;;;;;;5080171;28;20110;-66